메인 페이지
METAR-TAF:

METAR-TAF

공항 :

시애틀 터코마 국제공항

시애틀 / 터코마, 워싱턴, 미국

위도: 47-26-41N, 경도: 122-18-49W, 고도: 130m

현재 날씨관측

예보는 58분 전, 01:53시(UTC)에 발표되었습니다.
11kt
온도 8°C
습도 76%
기압 1022 hPa
시정: 11.3km
고도 4100ft 상공 구름 보통
고도 9000ft 상공 구름 많음
고도 16000ft 상공 흐림
약한비

METAR: KSEA 130153Z 17011KT 7SM -RA SCT041 BKN090 OVC160 08/04 A3019 RMK AO2 RAB46 SLP231 P0001 T00830039

시각: 18:51 (02:51 UTC)

예보

예보는 3 시간 24분 전, 23:27시(UTC)에 발표되었습니다.
예보 대상 시간: 13일 00시부터 14일 06시까지 (UTC)
12kt, 순간 최대 풍속 20kt
시정: 10km
고도 3000ft 상공 구름 보통
고도 5000ft 상공 구름 많음
고도 10000ft 상공 구름 많음
시계 내 소나기
일시적
13일 00시부터 13일 03시까지 (UTC)
약한소나기
13일 0300시부터 (UTC)
15kt, 순간 최대 풍속 24kt
시정: 9.7km
고도 2500ft 상공 흐림
약한비, 박무
13일 1400시부터 (UTC)
15kt, 순간 최대 풍속 25kt
시정: 10km
고도 2000ft 상공 흐림
약한소나기
14일 0200시부터 (UTC)
12kt, 순간 최대 풍속 18kt
시정: 10km
고도 2000ft 상공 구름 보통
고도 3000ft 상공 흐림
시계 내 소나기

TAF: KSEA 122327Z 1300/1406 18012G20KT P6SM VCSH SCT030 BKN050 BKN100 TEMPO 1300/1303 -SHRA FM130300 18015G24KT 6SM -RA BR OVC025 WS020/18025KT FM131400 18015G25KT P6SM -SHRA OVC020 WS020/18025KT FM140200 19012G18KT P6SM VCSH SCT020 OVC030

4,000개 이상의 공항 관측 자료 및 예보 (METAR 및 TAF 보고).

지도상에서 검색 가능한 기상관측소가 노란 점과 빨간 점으로 표시되어 있습니다.

기상관측소 명을 보려면 표시 위로 마우스를 이동하세요.

날씨 관측과 예보를 보려면 클릭하세요.

지도 변경 : 확대하려면 엑스 표시가 있는 녹색 버튼, 축소하려면 빼기 표시가 있는 녹색 버튼, 다음 페이지의 지도를 보려면 녹색 화살표를 클릭하세요.


METAR-TAF: